sensor_id;sensor_type;location;lat;lon;timestamp;P1;durP1;ratioP1;P2;durP2;ratioP2
41323;SDS011;27073;51.128;4.220;2022-08-01T00:01:54;12.95;;;5.22;;
41323;SDS011;27073;51.128;4.220;2022-08-01T00:04:19;8.82;;;4.60;;
41323;SDS011;27073;51.128;4.220;2022-08-01T00:06:45;7.10;;;3.80;;
41323;SDS011;27073;51.128;4.220;2022-08-01T00:09:11;9.38;;;4.80;;
41323;SDS011;27073;51.128;4.220;2022-08-01T00:11:37;13.85;;;4.75;;
41323;SDS011;27073;51.128;4.220;2022-08-01T00:14:03;9.20;;;4.13;;
41323;SDS011;27073;51.128;4.220;2022-08-01T00:16:29;9.25;;;5.03;;
41323;SDS011;27073;51.128;4.220;2022-08-01T00:18:54;10.48;;;4.88;;
41323;SDS011;27073;51.128;4.220;2022-08-01T00:21:20;11.02;;;4.78;;
41323;SDS011;27073;51.128;4.220;2022-08-01T00:23:46;8.38;;;4.70;;
41323;SDS011;27073;51.128;4.220;2022-08-01T00:26:13;9.43;;;4.97;;
41323;SDS011;27073;51.128;4.220;2022-08-01T00:28:39;8.50;;;5.18;;
41323;SDS011;27073;51.128;4.220;2022-08-01T00:31:06;11.57;;;6.43;;
41323;SDS011;27073;51.128;4.220;2022-08-01T00:33:32;10.15;;;5.97;;
41323;SDS011;27073;51.128;4.220;2022-08-01T00:35:58;11.77;;;5.97;;
41323;SDS011;27073;51.128;4.220;2022-08-01T00:38:24;9.70;;;6.03;;
41323;SDS011;27073;51.128;4.220;2022-08-01T00:40:50;8.15;;;6.18;;
41323;SDS011;27073;51.128;4.220;2022-08-01T00:43:15;9.23;;;6.05;;
41323;SDS011;27073;51.128;4.220;2022-08-01T00:45:41;9.68;;;6.03;;
41323;SDS011;27073;51.128;4.220;2022-08-01T00:48:07;10.00;;;6.55;;
41323;SDS011;27073;51.128;4.220;2022-08-01T00:50:33;10.82;;;6.55;;
41323;SDS011;27073;51.128;4.220;2022-08-01T00:53:00;8.27;;;6.40;;
41323;SDS011;27073;51.128;4.220;2022-08-01T00:55:26;10.20;;;7.32;;
41323;SDS011;27073;51.128;4.220;2022-08-01T00:57:52;13.60;;;9.07;;
41323;SDS011;27073;51.128;4.220;2022-08-01T01:00:19;10.07;;;8.90;;
41323;SDS011;27073;51.128;4.220;2022-08-01T01:02:45;16.08;;;9.65;;
41323;SDS011;27073;51.128;4.220;2022-08-01T01:05:11;14.30;;;9.82;;
41323;SDS011;27073;51.128;4.220;2022-08-01T01:07:45;13.65;;;9.75;;
41323;SDS011;27073;51.128;4.220;2022-08-01T01:10:32;14.00;;;9.93;;
41323;SDS011;27073;51.128;4.220;2022-08-01T01:15:54;16.83;;;12.00;;
41323;SDS011;27073;51.128;4.220;2022-08-01T01:18:24;18.60;;;12.38;;
41323;SDS011;27073;51.128;4.220;2022-08-01T01:21:01;18.05;;;12.25;;
41323;SDS011;27073;51.128;4.220;2022-08-01T01:23:55;17.25;;;12.25;;
41323;SDS011;27073;51.128;4.220;2022-08-01T01:32:04;20.45;;;13.75;;
41323;SDS011;27073;51.128;4.220;2022-08-01T01:34:47;19.63;;;13.63;;
41323;SDS011;27073;51.128;4.220;2022-08-01T01:37:17;26.77;;;14.25;;
41323;SDS011;27073;51.128;4.220;2022-08-01T01:39:46;24.13;;;14.43;;
41323;SDS011;27073;51.128;4.220;2022-08-01T01:42:14;24.90;;;13.93;;
41323;SDS011;27073;51.128;4.220;2022-08-01T01:44:42;26.33;;;16.45;;
41323;SDS011;27073;51.128;4.220;2022-08-01T01:47:09;22.08;;;16.15;;
41323;SDS011;27073;51.128;4.220;2022-08-01T01:49:38;25.00;;;18.75;;
41323;SDS011;27073;51.128;4.220;2022-08-01T01:52:06;23.05;;;18.25;;
41323;SDS011;27073;51.128;4.220;2022-08-01T01:54:35;23.95;;;18.58;;
41323;SDS011;27073;51.128;4.220;2022-08-01T01:57:04;22.60;;;17.75;;
41323;SDS011;27073;51.128;4.220;2022-08-01T01:59:32;24.50;;;19.77;;
41323;SDS011;27073;51.128;4.220;2022-08-01T02:02:04;27.10;;;20.17;;
41323;SDS011;27073;51.128;4.220;2022-08-01T02:04:34;29.48;;;22.00;;
41323;SDS011;27073;51.128;4.220;2022-08-01T02:07:02;28.55;;;21.48;;
41323;SDS011;27073;51.128;4.220;2022-08-01T02:09:28;26.17;;;22.50;;
41323;SDS011;27073;51.128;4.220;2022-08-01T02:11:55;34.15;;;23.35;;
41323;SDS011;27073;51.128;4.220;2022-08-01T02:14:23;29.30;;;21.50;;
41323;SDS011;27073;51.128;4.220;2022-08-01T02:16:52;24.27;;;18.88;;
41323;SDS011;27073;51.128;4.220;2022-08-01T02:19:22;25.40;;;18.50;;
41323;SDS011;27073;51.128;4.220;2022-08-01T02:21:59;17.90;;;13.57;;
41323;SDS011;27073;51.128;4.220;2022-08-01T02:24:29;18.38;;;11.35;;
41323;SDS011;27073;51.128;4.220;2022-08-01T02:27:04;19.27;;;9.60;;
41323;SDS011;27073;51.128;4.220;2022-08-01T02:32:19;14.00;;;8.77;;
41323;SDS011;27073;51.128;4.220;2022-08-01T02:34:49;14.32;;;8.70;;
41323;SDS011;27073;51.128;4.220;2022-08-01T02:37:17;13.15;;;7.85;;
41323;SDS011;27073;51.128;4.220;2022-08-01T02:39:50;14.20;;;8.23;;
41323;SDS011;27073;51.128;4.220;2022-08-01T02:42:19;11.38;;;8.23;;
41323;SDS011;27073;51.128;4.220;2022-08-01T02:44:47;18.20;;;9.00;;
41323;SDS011;27073;51.128;4.220;2022-08-01T02:47:14;10.77;;;7.90;;
41323;SDS011;27073;51.128;4.220;2022-08-01T02:49:43;14.25;;;8.55;;
41323;SDS011;27073;51.128;4.220;2022-08-01T02:52:13;12.13;;;8.23;;
41323;SDS011;27073;51.128;4.220;2022-08-01T02:54:45;11.30;;;8.60;;
41323;SDS011;27073;51.128;4.220;2022-08-01T02:57:14;9.70;;;8.07;;
41323;SDS011;27073;51.128;4.220;2022-08-01T02:59:43;11.07;;;8.25;;
41323;SDS011;27073;51.128;4.220;2022-08-01T03:02:10;9.93;;;8.38;;
41323;SDS011;27073;51.128;4.220;2022-08-01T03:04:38;14.00;;;9.30;;
41323;SDS011;27073;51.128;4.220;2022-08-01T03:07:07;13.40;;;8.60;;
41323;SDS011;27073;51.128;4.220;2022-08-01T03:09:36;11.35;;;8.00;;
41323;SDS011;27073;51.128;4.220;2022-08-01T03:12:11;12.40;;;8.23;;
41323;SDS011;27073;51.128;4.220;2022-08-01T03:14:40;12.35;;;8.32;;
41323;SDS011;27073;51.128;4.220;2022-08-01T03:17:08;9.05;;;7.68;;
41323;SDS011;27073;51.128;4.220;2022-08-01T03:19:35;10.50;;;6.72;;
41323;SDS011;27073;51.128;4.220;2022-08-01T03:22:04;10.15;;;7.20;;
41323;SDS011;27073;51.128;4.220;2022-08-01T03:24:33;9.40;;;7.38;;
41323;SDS011;27073;51.128;4.220;2022-08-01T03:27:02;9.45;;;6.55;;
41323;SDS011;27073;51.128;4.220;2022-08-01T03:29:28;9.20;;;6.28;;
41323;SDS011;27073;51.128;4.220;2022-08-01T03:31:57;7.63;;;5.47;;
41323;SDS011;27073;51.128;4.220;2022-08-01T03:34:23;11.48;;;6.13;;
41323;SDS011;27073;51.128;4.220;2022-08-01T03:36:50;10.20;;;5.78;;
41323;SDS011;27073;51.128;4.220;2022-08-01T03:39:22;9.35;;;6.13;;
41323;SDS011;27073;51.128;4.220;2022-08-01T03:41:54;8.23;;;6.25;;
41323;SDS011;27073;51.128;4.220;2022-08-01T03:44:25;11.52;;;8.85;;
41323;SDS011;27073;51.128;4.220;2022-08-01T03:47:00;11.18;;;8.90;;
41323;SDS011;27073;51.128;4.220;2022-08-01T03:49:32;12.63;;;9.73;;
41323;SDS011;27073;51.128;4.220;2022-08-01T03:52:03;11.05;;;9.13;;
41323;SDS011;27073;51.128;4.220;2022-08-01T03:54:34;10.43;;;9.43;;
41323;SDS011;27073;51.128;4.220;2022-08-01T03:57:02;11.07;;;8.70;;
41323;SDS011;27073;51.128;4.220;2022-08-01T03:59:30;11.45;;;8.52;;
41323;SDS011;27073;51.128;4.220;2022-08-01T04:01:57;13.75;;;9.18;;
41323;SDS011;27073;51.128;4.220;2022-08-01T04:04:23;11.45;;;8.82;;
41323;SDS011;27073;51.128;4.220;2022-08-01T04:06:50;13.57;;;8.55;;
41323;SDS011;27073;51.128;4.220;2022-08-01T04:09:19;12.73;;;9.38;;
41323;SDS011;27073;51.128;4.220;2022-08-01T04:11:46;8.93;;;8.02;;
41323;SDS011;27073;51.128;4.220;2022-08-01T04:14:12;11.73;;;8.65;;
41323;SDS011;27073;51.128;4.220;2022-08-01T04:16:38;10.55;;;8.38;;
41323;SDS011;27073;51.128;4.220;2022-08-01T04:19:03;9.15;;;8.07;;
41323;SDS011;27073;51.128;4.220;2022-08-01T04:21:32;10.52;;;9.38;;
41323;SDS011;27073;51.128;4.220;2022-08-01T04:24:02;9.98;;;8.73;;
41323;SDS011;27073;51.128;4.220;2022-08-01T04:26:36;11.93;;;9.02;;
41323;SDS011;27073;51.128;4.220;2022-08-01T04:29:03;11.00;;;9.30;;
41323;SDS011;27073;51.128;4.220;2022-08-01T04:31:31;12.05;;;8.75;;
41323;SDS011;27073;51.128;4.220;2022-08-01T04:33:59;9.50;;;8.35;;
41323;SDS011;27073;51.128;4.220;2022-08-01T04:36:27;13.68;;;8.85;;
41323;SDS011;27073;51.128;4.220;2022-08-01T04:38:56;10.93;;;8.88;;
41323;SDS011;27073;51.128;4.220;2022-08-01T04:41:25;11.30;;;8.60;;
41323;SDS011;27073;51.128;4.220;2022-08-01T04:43:51;8.93;;;7.25;;
41323;SDS011;27073;51.128;4.220;2022-08-01T04:46:17;10.68;;;8.18;;
41323;SDS011;27073;51.128;4.220;2022-08-01T04:48:43;9.35;;;8.20;;
41323;SDS011;27073;51.128;4.220;2022-08-01T04:51:14;9.93;;;7.70;;
41323;SDS011;27073;51.128;4.220;2022-08-01T04:53:42;13.25;;;7.18;;
41323;SDS011;27073;51.128;4.220;2022-08-01T04:56:08;13.27;;;7.75;;
41323;SDS011;27073;51.128;4.220;2022-08-01T04:58:34;8.98;;;7.18;;
41323;SDS011;27073;51.128;4.220;2022-08-01T05:01:00;11.45;;;6.80;;
41323;SDS011;27073;51.128;4.220;2022-08-01T05:03:26;11.60;;;7.00;;
41323;SDS011;27073;51.128;4.220;2022-08-01T05:05:51;11.93;;;7.43;;
41323;SDS011;27073;51.128;4.220;2022-08-01T05:08:17;8.70;;;6.80;;
41323;SDS011;27073;51.128;4.220;2022-08-01T05:10:43;11.02;;;6.15;;
41323;SDS011;27073;51.128;4.220;2022-08-01T05:13:09;8.90;;;6.53;;
41323;SDS011;27073;51.128;4.220;2022-08-01T05:15:35;7.25;;;6.10;;
41323;SDS011;27073;51.128;4.220;2022-08-01T05:18:03;7.57;;;6.03;;
41323;SDS011;27073;51.128;4.220;2022-08-01T05:20:29;9.10;;;6.03;;
41323;SDS011;27073;51.128;4.220;2022-08-01T05:22:55;7.07;;;5.78;;
41323;SDS011;27073;51.128;4.220;2022-08-01T05:25:20;9.35;;;6.22;;
41323;SDS011;27073;51.128;4.220;2022-08-01T05:27:46;9.80;;;6.00;;
41323;SDS011;27073;51.128;4.220;2022-08-01T05:30:12;8.20;;;5.72;;
41323;SDS011;27073;51.128;4.220;2022-08-01T05:32:38;9.35;;;6.47;;
41323;SDS011;27073;51.128;4.220;2022-08-01T05:35:04;8.00;;;5.88;;
41323;SDS011;27073;51.128;4.220;2022-08-01T05:37:30;9.23;;;6.45;;
41323;SDS011;27073;51.128;4.220;2022-08-01T05:39:56;7.18;;;6.03;;
41323;SDS011;27073;51.128;4.220;2022-08-01T05:42:22;6.70;;;5.90;;
41323;SDS011;27073;51.128;4.220;2022-08-01T05:44:47;9.57;;;4.90;;
41323;SDS011;27073;51.128;4.220;2022-08-01T05:47:15;6.75;;;4.70;;
41323;SDS011;27073;51.128;4.220;2022-08-01T05:49:40;5.25;;;4.53;;
41323;SDS011;27073;51.128;4.220;2022-08-01T05:52:06;5.00;;;4.50;;
41323;SDS011;27073;51.128;4.220;2022-08-01T05:54:33;5.72;;;4.30;;
41323;SDS011;27073;51.128;4.220;2022-08-01T05:56:58;5.82;;;4.00;;
41323;SDS011;27073;51.128;4.220;2022-08-01T05:59:28;7.65;;;3.75;;
41323;SDS011;27073;51.128;4.220;2022-08-01T06:01:54;4.97;;;3.53;;
41323;SDS011;27073;51.128;4.220;2022-08-01T06:04:19;4.45;;;3.97;;
41323;SDS011;27073;51.128;4.220;2022-08-01T06:06:45;5.57;;;3.50;;
41323;SDS011;27073;51.128;4.220;2022-08-01T06:09:11;3.78;;;2.88;;
41323;SDS011;27073;51.128;4.220;2022-08-01T06:11:37;4.05;;;3.22;;
41323;SDS011;27073;51.128;4.220;2022-08-01T06:14:02;4.72;;;2.90;;
41323;SDS011;27073;51.128;4.220;2022-08-01T06:16:28;6.50;;;2.40;;
41323;SDS011;27073;51.128;4.220;2022-08-01T06:18:54;4.43;;;2.25;;
41323;SDS011;27073;51.128;4.220;2022-08-01T06:21:20;3.42;;;1.50;;
41323;SDS011;27073;51.128;4.220;2022-08-01T06:23:45;2.83;;;1.55;;
41323;SDS011;27073;51.128;4.220;2022-08-01T06:26:11;4.60;;;2.08;;
41323;SDS011;27073;51.128;4.220;2022-08-01T06:28:37;3.38;;;1.67;;
41323;SDS011;27073;51.128;4.220;2022-08-01T06:31:03;3.13;;;1.45;;
41323;SDS011;27073;51.128;4.220;2022-08-01T06:33:29;3.15;;;1.27;;
41323;SDS011;27073;51.128;4.220;2022-08-01T06:35:55;2.00;;;1.20;;
41323;SDS011;27073;51.128;4.220;2022-08-01T06:38:21;4.00;;;1.20;;
41323;SDS011;27073;51.128;4.220;2022-08-01T06:40:47;3.70;;;0.80;;
41323;SDS011;27073;51.128;4.220;2022-08-01T06:43:13;3.70;;;0.90;;
41323;SDS011;27073;51.128;4.220;2022-08-01T06:45:39;2.63;;;0.80;;
41323;SDS011;27073;51.128;4.220;2022-08-01T06:48:05;5.13;;;1.20;;
41323;SDS011;27073;51.128;4.220;2022-08-01T06:50:31;3.58;;;0.90;;
41323;SDS011;27073;51.128;4.220;2022-08-01T06:52:57;2.25;;;0.73;;
41323;SDS011;27073;51.128;4.220;2022-08-01T06:55:23;1.58;;;0.90;;
41323;SDS011;27073;51.128;4.220;2022-08-01T06:57:52;2.25;;;0.70;;
41323;SDS011;27073;51.128;4.220;2022-08-01T07:00:18;1.83;;;0.80;;
41323;SDS011;27073;51.128;4.220;2022-08-01T07:02:50;2.20;;;0.68;;
41323;SDS011;27073;51.128;4.220;2022-08-01T07:05:18;2.28;;;0.75;;
41323;SDS011;27073;51.128;4.220;2022-08-01T07:07:44;3.67;;;0.60;;
41323;SDS011;27073;51.128;4.220;2022-08-01T07:10:10;2.63;;;0.70;;
41323;SDS011;27073;51.128;4.220;2022-08-01T07:12:36;2.10;;;0.38;;
41323;SDS011;27073;51.128;4.220;2022-08-01T07:15:06;1.23;;;0.35;;
41323;SDS011;27073;51.128;4.220;2022-08-01T07:17:36;1.98;;;0.60;;
41323;SDS011;27073;51.128;4.220;2022-08-01T07:20:06;1.55;;;0.43;;
41323;SDS011;27073;51.128;4.220;2022-08-01T07:22:33;1.58;;;0.30;;
41323;SDS011;27073;51.128;4.220;2022-08-01T07:24:59;1.42;;;0.50;;
41323;SDS011;27073;51.128;4.220;2022-08-01T07:27:25;1.65;;;0.50;;
41323;SDS011;27073;51.128;4.220;2022-08-01T07:29:50;1.33;;;0.30;;
41323;SDS011;27073;51.128;4.220;2022-08-01T07:32:16;1.50;;;0.50;;
41323;SDS011;27073;51.128;4.220;2022-08-01T07:34:42;2.20;;;0.50;;
41323;SDS011;27073;51.128;4.220;2022-08-01T07:37:08;2.35;;;0.82;;
41323;SDS011;27073;51.128;4.220;2022-08-01T07:39:33;0.98;;;0.30;;
41323;SDS011;27073;51.128;4.220;2022-08-01T07:41:59;0.80;;;0.20;;
41323;SDS011;27073;51.128;4.220;2022-08-01T07:44:25;1.38;;;0.30;;
41323;SDS011;27073;51.128;4.220;2022-08-01T07:46:51;3.05;;;0.47;;
41323;SDS011;27073;51.128;4.220;2022-08-01T07:49:16;1.48;;;0.30;;
41323;SDS011;27073;51.128;4.220;2022-08-01T07:51:42;2.78;;;0.40;;
41323;SDS011;27073;51.128;4.220;2022-08-01T07:54:08;1.83;;;0.40;;
41323;SDS011;27073;51.128;4.220;2022-08-01T07:56:33;2.10;;;0.40;;
41323;SDS011;27073;51.128;4.220;2022-08-01T07:58:59;1.42;;;0.35;;
41323;SDS011;27073;51.128;4.220;2022-08-01T08:01:25;2.97;;;0.40;;
41323;SDS011;27073;51.128;4.220;2022-08-01T08:03:51;1.63;;;0.40;;
41323;SDS011;27073;51.128;4.220;2022-08-01T08:06:17;2.00;;;0.40;;
41323;SDS011;27073;51.128;4.220;2022-08-01T08:08:43;2.75;;;0.40;;
41323;SDS011;27073;51.128;4.220;2022-08-01T08:11:08;1.83;;;0.30;;
41323;SDS011;27073;51.128;4.220;2022-08-01T08:13:34;3.05;;;0.82;;
41323;SDS011;27073;51.128;4.220;2022-08-01T08:16:00;1.85;;;0.95;;
41323;SDS011;27073;51.128;4.220;2022-08-01T08:18:25;1.15;;;0.38;;
41323;SDS011;27073;51.128;4.220;2022-08-01T08:20:51;1.10;;;0.20;;
41323;SDS011;27073;51.128;4.220;2022-08-01T08:23:17;1.58;;;0.40;;
41323;SDS011;27073;51.128;4.220;2022-08-01T08:26:01;2.00;;;0.50;;
41323;SDS011;27073;51.128;4.220;2022-08-01T08:28:27;1.30;;;0.45;;
41323;SDS011;27073;51.128;4.220;2022-08-01T08:30:53;1.55;;;0.50;;
41323;SDS011;27073;51.128;4.220;2022-08-01T08:33:20;2.92;;;0.50;;
41323;SDS011;27073;51.128;4.220;2022-08-01T08:35:46;1.13;;;0.40;;
41323;SDS011;27073;51.128;4.220;2022-08-01T08:38:11;2.47;;;0.60;;
41323;SDS011;27073;51.128;4.220;2022-08-01T08:40:37;2.88;;;0.60;;
41323;SDS011;27073;51.128;4.220;2022-08-01T08:43:04;2.28;;;0.63;;
41323;SDS011;27073;51.128;4.220;2022-08-01T08:45:31;2.92;;;0.65;;
41323;SDS011;27073;51.128;4.220;2022-08-01T08:47:58;1.50;;;0.50;;
41323;SDS011;27073;51.128;4.220;2022-08-01T08:50:25;2.65;;;0.63;;
41323;SDS011;27073;51.128;4.220;2022-08-01T08:52:54;2.65;;;0.73;;
41323;SDS011;27073;51.128;4.220;2022-08-01T08:55:21;3.25;;;0.75;;
41323;SDS011;27073;51.128;4.220;2022-08-01T08:57:49;3.50;;;0.98;;
41323;SDS011;27073;51.128;4.220;2022-08-01T09:00:16;2.83;;;0.80;;
41323;SDS011;27073;51.128;4.220;2022-08-01T09:02:42;3.95;;;1.00;;
41323;SDS011;27073;51.128;4.220;2022-08-01T09:05:09;3.38;;;1.15;;
41323;SDS011;27073;51.128;4.220;2022-08-01T09:07:36;1.73;;;0.73;;
41323;SDS011;27073;51.128;4.220;2022-08-01T09:10:03;3.90;;;0.88;;
41323;SDS011;27073;51.128;4.220;2022-08-01T09:12:29;4.05;;;1.13;;
41323;SDS011;27073;51.128;4.220;2022-08-01T09:14:55;3.20;;;0.85;;
41323;SDS011;27073;51.128;4.220;2022-08-01T09:17:21;3.58;;;0.88;;
41323;SDS011;27073;51.128;4.220;2022-08-01T09:19:48;3.38;;;0.93;;
41323;SDS011;27073;51.128;4.220;2022-08-01T09:22:19;2.80;;;0.70;;
41323;SDS011;27073;51.128;4.220;2022-08-01T09:27:25;3.95;;;0.85;;
41323;SDS011;27073;51.128;4.220;2022-08-01T09:29:52;3.50;;;0.80;;
41323;SDS011;27073;51.128;4.220;2022-08-01T09:32:19;1.60;;;1.05;;
41323;SDS011;27073;51.128;4.220;2022-08-01T09:34:45;6.45;;;1.17;;
41323;SDS011;27073;51.128;4.220;2022-08-01T09:37:13;3.65;;;1.08;;
41323;SDS011;27073;51.128;4.220;2022-08-01T09:39:42;2.85;;;0.90;;
41323;SDS011;27073;51.128;4.220;2022-08-01T09:42:20;4.05;;;0.77;;
41323;SDS011;27073;51.128;4.220;2022-08-01T09:44:50;3.70;;;1.00;;
41323;SDS011;27073;51.128;4.220;2022-08-01T09:47:16;4.32;;;1.13;;
41323;SDS011;27073;51.128;4.220;2022-08-01T09:49:46;4.88;;;1.10;;
41323;SDS011;27073;51.128;4.220;2022-08-01T09:52:22;2.42;;;0.85;;
41323;SDS011;27073;51.128;4.220;2022-08-01T09:57:23;2.20;;;0.60;;
41323;SDS011;27073;51.128;4.220;2022-08-01T09:59:50;1.90;;;0.60;;
41323;SDS011;27073;51.128;4.220;2022-08-01T10:04:55;1.83;;;0.65;;
41323;SDS011;27073;51.128;4.220;2022-08-01T10:07:21;2.33;;;0.65;;
41323;SDS011;27073;51.128;4.220;2022-08-01T10:09:47;2.80;;;0.80;;
41323;SDS011;27073;51.128;4.220;2022-08-01T10:12:14;3.78;;;0.80;;
41323;SDS011;27073;51.128;4.220;2022-08-01T10:14:46;4.97;;;0.65;;
41323;SDS011;27073;51.128;4.220;2022-08-01T10:17:15;3.65;;;0.60;;
41323;SDS011;27073;51.128;4.220;2022-08-01T10:19:42;3.90;;;0.82;;
41323;SDS011;27073;51.128;4.220;2022-08-01T10:22:09;2.78;;;0.80;;
41323;SDS011;27073;51.128;4.220;2022-08-01T10:27:06;3.97;;;0.70;;
41323;SDS011;27073;51.128;4.220;2022-08-01T10:32:05;3.67;;;1.00;;
41323;SDS011;27073;51.128;4.220;2022-08-01T10:34:33;2.60;;;0.70;;
41323;SDS011;27073;51.128;4.220;2022-08-01T10:36:59;1.33;;;0.60;;
41323;SDS011;27073;51.128;4.220;2022-08-01T10:39:25;2.33;;;0.60;;
41323;SDS011;27073;51.128;4.220;2022-08-01T10:41:55;3.10;;;0.85;;
41323;SDS011;27073;51.128;4.220;2022-08-01T10:44:21;3.35;;;0.70;;
41323;SDS011;27073;51.128;4.220;2022-08-01T10:46:50;2.20;;;0.50;;
41323;SDS011;27073;51.128;4.220;2022-08-01T10:49:21;1.60;;;0.50;;
41323;SDS011;27073;51.128;4.220;2022-08-01T10:51:50;2.57;;;0.40;;
41323;SDS011;27073;51.128;4.220;2022-08-01T10:54:16;3.20;;;0.90;;
41323;SDS011;27073;51.128;4.220;2022-08-01T10:56:42;2.97;;;0.65;;
41323;SDS011;27073;51.128;4.220;2022-08-01T10:59:09;4.22;;;0.65;;
41323;SDS011;27073;51.128;4.220;2022-08-01T11:01:34;3.03;;;0.70;;
41323;SDS011;27073;51.128;4.220;2022-08-01T11:08:59;1.35;;;0.60;;
41323;SDS011;27073;51.128;4.220;2022-08-01T11:11:31;1.20;;;0.30;;
41323;SDS011;27073;51.128;4.220;2022-08-01T11:16:33;2.33;;;0.45;;
41323;SDS011;27073;51.128;4.220;2022-08-01T11:19:00;2.33;;;0.90;;
41323;SDS011;27073;51.128;4.220;2022-08-01T11:32:33;4.47;;;0.68;;
41323;SDS011;27073;51.128;4.220;2022-08-01T11:35:16;2.63;;;0.60;;
41323;SDS011;27073;51.128;4.220;2022-08-01T11:37:45;2.93;;;0.90;;
41323;SDS011;27073;51.128;4.220;2022-08-01T11:40:26;2.40;;;0.50;;
41323;SDS011;27073;51.128;4.220;2022-08-01T11:48:19;3.75;;;1.02;;
41323;SDS011;27073;51.128;4.220;2022-08-01T11:50:46;1.95;;;0.90;;
41323;SDS011;27073;51.128;4.220;2022-08-01T11:53:14;2.17;;;0.60;;
41323;SDS011;27073;51.128;4.220;2022-08-01T11:55:47;3.53;;;0.50;;
41323;SDS011;27073;51.128;4.220;2022-08-01T11:58:15;3.10;;;0.90;;
41323;SDS011;27073;51.128;4.220;2022-08-01T12:00:49;2.20;;;0.75;;
41323;SDS011;27073;51.128;4.220;2022-08-01T12:03:16;1.58;;;0.70;;
41323;SDS011;27073;51.128;4.220;2022-08-01T12:05:47;2.30;;;0.68;;
41323;SDS011;27073;51.128;4.220;2022-08-01T12:08:13;4.80;;;0.50;;
41323;SDS011;27073;51.128;4.220;2022-08-01T12:10:50;4.32;;;0.80;;
41323;SDS011;27073;51.128;4.220;2022-08-01T12:13:15;1.63;;;0.52;;
41323;SDS011;27073;51.128;4.220;2022-08-01T12:15:43;3.88;;;0.95;;
41323;SDS011;27073;51.128;4.220;2022-08-01T12:18:10;4.78;;;1.00;;
41323;SDS011;27073;51.128;4.220;2022-08-01T12:20:37;2.47;;;0.57;;
41323;SDS011;27073;51.128;4.220;2022-08-01T12:23:08;4.00;;;0.70;;
41323;SDS011;27073;51.128;4.220;2022-08-01T12:25:36;3.40;;;0.70;;
41323;SDS011;27073;51.128;4.220;2022-08-01T12:28:05;2.85;;;1.30;;
41323;SDS011;27073;51.128;4.220;2022-08-01T12:30:33;3.67;;;1.15;;
41323;SDS011;27073;51.128;4.220;2022-08-01T12:33:00;1.55;;;0.43;;
41323;SDS011;27073;51.128;4.220;2022-08-01T12:35:28;2.35;;;0.60;;
41323;SDS011;27073;51.128;4.220;2022-08-01T12:38:36;4.15;;;0.60;;
41323;SDS011;27073;51.128;4.220;2022-08-01T12:40:45;3.17;;;0.70;;
41323;SDS011;27073;51.128;4.220;2022-08-01T12:43:20;2.45;;;0.60;;
41323;SDS011;27073;51.128;4.220;2022-08-01T12:45:48;3.38;;;0.85;;
41323;SDS011;27073;51.128;4.220;2022-08-01T12:48:16;2.80;;;0.80;;
41323;SDS011;27073;51.128;4.220;2022-08-01T12:50:46;3.67;;;0.52;;
41323;SDS011;27073;51.128;4.220;2022-08-01T12:53:13;2.67;;;0.60;;
41323;SDS011;27073;51.128;4.220;2022-08-01T12:55:49;2.13;;;0.60;;
41323;SDS011;27073;51.128;4.220;2022-08-01T12:58:17;1.40;;;0.47;;
41323;SDS011;27073;51.128;4.220;2022-08-01T13:00:45;3.35;;;0.57;;
41323;SDS011;27073;51.128;4.220;2022-08-01T13:03:18;2.65;;;0.70;;
41323;SDS011;27073;51.128;4.220;2022-08-01T13:05:47;4.07;;;0.70;;
41323;SDS011;27073;51.128;4.220;2022-08-01T13:10:49;1.88;;;0.45;;
41323;SDS011;27073;51.128;4.220;2022-08-01T13:13:16;3.00;;;0.40;;
41323;SDS011;27073;51.128;4.220;2022-08-01T13:15:44;2.35;;;0.50;;
41323;SDS011;27073;51.128;4.220;2022-08-01T13:18:29;2.40;;;0.50;;
41323;SDS011;27073;51.128;4.220;2022-08-01T13:21:16;2.20;;;0.40;;
41323;SDS011;27073;51.128;4.220;2022-08-01T13:23:59;1.80;;;0.35;;
41323;SDS011;27073;51.128;4.220;2022-08-01T13:29:06;1.55;;;0.50;;
41323;SDS011;27073;51.128;4.220;2022-08-01T13:31:33;1.73;;;0.50;;
41323;SDS011;27073;51.128;4.220;2022-08-01T13:34:00;2.15;;;0.70;;
41323;SDS011;27073;51.128;4.220;2022-08-01T13:36:26;1.77;;;0.40;;
41323;SDS011;27073;51.128;4.220;2022-08-01T13:38:54;1.95;;;0.60;;
41323;SDS011;27073;51.128;4.220;2022-08-01T13:41:58;2.38;;;0.50;;
41323;SDS011;27073;51.128;4.220;2022-08-01T13:44:24;3.95;;;0.80;;
41323;SDS011;27073;51.128;4.220;2022-08-01T13:46:50;2.47;;;0.70;;
41323;SDS011;27073;51.128;4.220;2022-08-01T13:49:16;3.08;;;0.45;;
41323;SDS011;27073;51.128;4.220;2022-08-01T13:51:42;3.92;;;0.90;;
41323;SDS011;27073;51.128;4.220;2022-08-01T13:54:08;3.70;;;1.30;;
41323;SDS011;27073;51.128;4.220;2022-08-01T13:56:34;1.50;;;0.50;;
41323;SDS011;27073;51.128;4.220;2022-08-01T13:58:59;4.30;;;0.93;;
41323;SDS011;27073;51.128;4.220;2022-08-01T14:01:25;5.97;;;0.88;;
41323;SDS011;27073;51.128;4.220;2022-08-01T14:03:51;2.60;;;0.57;;
41323;SDS011;27073;51.128;4.220;2022-08-01T14:06:18;4.45;;;1.00;;
41323;SDS011;27073;51.128;4.220;2022-08-01T14:08:45;5.95;;;0.98;;
41323;SDS011;27073;51.128;4.220;2022-08-01T14:11:11;3.88;;;0.90;;
41323;SDS011;27073;51.128;4.220;2022-08-01T14:13:37;3.92;;;0.70;;
41323;SDS011;27073;51.128;4.220;2022-08-01T14:16:04;2.15;;;0.57;;
41323;SDS011;27073;51.128;4.220;2022-08-01T14:18:30;2.58;;;0.70;;
41323;SDS011;27073;51.128;4.220;2022-08-01T14:20:56;2.22;;;0.70;;
41323;SDS011;27073;51.128;4.220;2022-08-01T14:23:22;2.47;;;0.73;;
41323;SDS011;27073;51.128;4.220;2022-08-01T14:25:48;4.10;;;0.70;;
41323;SDS011;27073;51.128;4.220;2022-08-01T14:28:14;1.55;;;0.60;;
41323;SDS011;27073;51.128;4.220;2022-08-01T14:30:40;3.10;;;0.52;;
41323;SDS011;27073;51.128;4.220;2022-08-01T14:33:07;2.47;;;0.63;;
41323;SDS011;27073;51.128;4.220;2022-08-01T14:35:34;3.47;;;0.80;;
41323;SDS011;27073;51.128;4.220;2022-08-01T14:37:59;1.40;;;0.50;;
41323;SDS011;27073;51.128;4.220;2022-08-01T14:40:25;3.17;;;0.70;;
41323;SDS011;27073;51.128;4.220;2022-08-01T14:42:51;4.60;;;0.73;;
41323;SDS011;27073;51.128;4.220;2022-08-01T14:45:17;2.65;;;0.52;;
41323;SDS011;27073;51.128;4.220;2022-08-01T14:47:43;4.38;;;0.50;;
41323;SDS011;27073;51.128;4.220;2022-08-01T14:50:09;3.67;;;0.70;;
41323;SDS011;27073;51.128;4.220;2022-08-01T14:52:37;5.38;;;1.10;;
41323;SDS011;27073;51.128;4.220;2022-08-01T14:55:04;2.58;;;0.35;;
41323;SDS011;27073;51.128;4.220;2022-08-01T14:57:31;5.72;;;1.27;;
41323;SDS011;27073;51.128;4.220;2022-08-01T14:59:57;3.03;;;0.40;;
41323;SDS011;27073;51.128;4.220;2022-08-01T15:02:23;2.47;;;0.50;;
41323;SDS011;27073;51.128;4.220;2022-08-01T15:04:49;2.60;;;0.60;;
41323;SDS011;27073;51.128;4.220;2022-08-01T15:07:16;2.95;;;0.50;;
41323;SDS011;27073;51.128;4.220;2022-08-01T15:09:42;2.35;;;0.52;;
41323;SDS011;27073;51.128;4.220;2022-08-01T15:12:09;2.25;;;0.75;;
41323;SDS011;27073;51.128;4.220;2022-08-01T15:14:35;3.42;;;0.63;;
41323;SDS011;27073;51.128;4.220;2022-08-01T15:17:13;1.92;;;0.68;;
41323;SDS011;27073;51.128;4.220;2022-08-01T15:19:44;2.33;;;0.40;;
41323;SDS011;27073;51.128;4.220;2022-08-01T15:22:10;2.20;;;0.57;;
41323;SDS011;27073;51.128;4.220;2022-08-01T15:24:36;2.15;;;0.50;;
41323;SDS011;27073;51.128;4.220;2022-08-01T15:27:03;2.05;;;0.85;;
41323;SDS011;27073;51.128;4.220;2022-08-01T15:29:29;1.90;;;0.50;;
41323;SDS011;27073;51.128;4.220;2022-08-01T15:31:54;3.40;;;0.93;;
41323;SDS011;27073;51.128;4.220;2022-08-01T15:34:23;2.88;;;1.00;;
41323;SDS011;27073;51.128;4.220;2022-08-01T15:36:50;4.28;;;0.95;;
41323;SDS011;27073;51.128;4.220;2022-08-01T15:39:16;2.25;;;0.50;;
41323;SDS011;27073;51.128;4.220;2022-08-01T15:41:42;1.88;;;0.60;;